Terminal Aerodrome Forecast
Issued by NWS

Home | Current Version | Previous Version | Text Only | Print | Product List | Glossary On
Versions: 1 2 3 4 5 6 7 8 9 10 11 12 13 14 15 16 17
000
FTUS43 KICT 170528
TAFHUT
TAF
KHUT 170528Z 1706/1806 19010KT P6SM FEW200 WS020/22035KT
     FM171200 19008KT P6SM SKC
     FM171800 19014G20KT P6SM SKC
     FM180000 18008KT P6SM SCT120=

USA.gov is the U.S. government's official web portal to all federal, state and local government web resources and services.